This is the latest recevied weather packets stored in our database for station/object SP7WMI-13. If no packets are shown the sender has not sent any weather packets the latest 10 day(s).
| Time | Temp. | Humidity | Pressure | Rain* | Wind** | Luminosity | Snow |
|---|---|---|---|---|---|---|---|
| 1777806668 | 23.89° C | 28% | 1014.9 hPa | 0 mm | - | - | - |
| 1777805765 | 23.33° C | 29% | 1015 hPa | 0 mm | - | - | - |
| 1777804861 | 22.78° C | 30% | 1015.2 hPa | 0 mm | - | - | - |
| 1777803958 | 22.22° C | 31% | 1015.3 hPa | 0 mm | - | - | - |
| 1777803055 | 21.67° C | 30% | 1015.6 hPa | 0 mm | - | - | - |
| 1777802152 | 21.11° C | 29% | 1015.7 hPa | 0 mm | - | - | - |
| 1777801849 | 21.11° C | 28% | 1015.8 hPa | 0 mm | - | - | - |
| 1777801091 | 21.11° C | 30% | 1015.9 hPa | 0 mm | - | - | - |
| 1777800188 | 20.56° C | 30% | 1016 hPa | 0 mm | - | - | - |
| 1777799285 | 20.56° C | 32% | 1016.2 hPa | 0 mm | - | - | - |
| 1777754367 | 18.89° C | 40% | 1017.8 hPa | 0 mm | - | - | - |
| 1777753464 | 19.44° C | 39% | 1017.9 hPa | 0 mm | - | - | - |
| 1777752561 | 19.44° C | 39% | 1017.9 hPa | 0 mm | - | - | - |
| 1777751658 | 20° C | 38% | 1018 hPa | 0 mm | - | - | - |
| 1777750755 | 20° C | 37% | 1017.9 hPa | 0 mm | - | - | - |
| 1777749852 | 20.56° C | 36% | 1018 hPa | 0 mm | - | - | - |
| 1777748949 | 20.56° C | 35% | 1018.1 hPa | 0 mm | - | - | - |
| 1777748046 | 21.11° C | 34% | 1018.2 hPa | 0 mm | - | - | - |
| 1777747143 | 21.67° C | 33% | 1018 hPa | 0 mm | - | - | - |
| 1777746240 | 22.22° C | 37% | 1018 hPa | 0 mm | - | - | - |
| 1777745337 | 22.78° C | 31% | 1018 hPa | 0 mm | - | - | - |
| 1777744434 | 23.33° C | 30% | 1018 hPa | 0 mm | - | - | - |
| 1777739017 | 26.11° C | 26% | 1018.3 hPa | 0 mm | - | - | - |
| 1777737211 | 25.56° C | 27% | 1018.6 hPa | 0 mm | - | - | - |
| 1777735407 | 25° C | 27% | 1018.9 hPa | 0 mm | - | - | - |
* Rain since midnight (hover to see other rain measurements)
** Current wind speed in m/s (hover to see current wind gust speed)